Time;durP1;ratioP1;P1;durP2;ratioP2;P2;SDS_P1;SDS_P2;PMS_P1;PMS_P2;Temp;Humidity;BMP_temperature;BMP_pressure;BME280_temperature;BME280_humidity;BME280_pressure;Samples;Min_cycle;Max_cycle;Signal;HPM_P1;HPM_P2
2023/01/20 00:01:38;;;;;;;2.20;1.23;;;19.30;55.30;;;;;;5017517;28;20069;-66
2023/01/20 00:04:04;;;;;;;1.52;1.02;;;19.20;55.20;;;;;;5020130;28;20481;-65
2023/01/20 00:06:30;;;;;;;1.85;1.15;;;19.20;55.30;;;;;;5018364;28;20508;-65
2023/01/20 00:08:59;;;;;;;1.98;1.20;;;19.20;55.20;;;;;;5021331;28;20053;-66
2023/01/20 00:11:25;;;;;;;2.92;1.25;;;19.20;55.30;;;;;;5017719;28;20034;-66
2023/01/20 00:13:55;;;;;;;1.95;1.25;;;19.20;55.30;;;;;;5023622;28;20033;-66
2023/01/20 00:16:21;;;;;;;1.90;1.20;;;19.20;55.20;;;;;;5017229;28;20044;-65
2023/01/20 00:18:47;;;;;;;1.95;1.20;;;19.20;55.30;;;;;;5016744;28;20038;-66
2023/01/20 00:21:13;;;;;;;1.98;1.17;;;19.20;55.30;;;;;;5020256;28;20037;-66
2023/01/20 00:23:40;;;;;;;1.60;1.00;;;19.20;55.30;;;;;;5018509;28;20041;-66
2023/01/20 00:26:08;;;;;;;1.83;1.10;;;19.20;55.30;;;;;;5018616;28;20033;-66
2023/01/20 00:28:34;;;;;;;2.60;1.30;;;19.20;55.30;;;;;;5020882;28;20493;-66
2023/01/20 00:31:30;;;;;;;1.75;1.02;;;19.20;55.30;;;;;;5017900;28;20112;-65
2023/01/20 00:33:58;;;;;;;2.17;1.20;;;19.10;55.30;;;;;;5020218;28;20056;-66
2023/01/20 00:36:24;;;;;;;2.25;1.20;;;19.10;55.30;;;;;;5017651;28;20022;-66
2023/01/20 00:38:50;;;;;;;3.10;1.10;;;19.10;55.30;;;;;;5026359;28;20108;-65
2023/01/20 00:41:17;;;;;;;1.98;1.20;;;19.10;55.30;;;;;;5020818;28;20097;-67
2023/01/20 00:43:43;;;;;;;1.77;1.20;;;19.10;55.30;;;;;;5021489;28;20032;-66
2023/01/20 00:46:09;;;;;;;1.98;1.10;;;19.10;55.30;;;;;;5019263;28;20469;-66
2023/01/20 00:48:35;;;;;;;2.53;1.40;;;19.10;55.30;;;;;;5020913;28;20018;-66
2023/01/20 00:51:01;;;;;;;1.67;1.00;;;19.10;55.30;;;;;;5020872;28;20589;-65
2023/01/20 00:53:27;;;;;;;1.95;1.10;;;19.10;55.40;;;;;;5020549;28;20108;-65
2023/01/20 00:55:53;;;;;;;1.73;1.10;;;19.10;55.40;;;;;;5021553;28;20172;-66
2023/01/20 00:58:19;;;;;;;2.70;1.40;;;19.00;55.30;;;;;;5019961;28;20045;-65
2023/01/20 01:00:49;;;;;;;2.42;1.10;;;19.10;55.40;;;;;;5024066;28;20473;-66
2023/01/20 01:03:15;;;;;;;2.35;1.30;;;19.00;55.30;;;;;;5022210;28;20481;-66
2023/01/20 01:05:41;;;;;;;1.67;1.10;;;19.00;55.30;;;;;;5021999;28;20491;-66
2023/01/20 01:08:07;;;;;;;2.20;1.30;;;19.00;55.40;;;;;;5018843;28;20434;-66
2023/01/20 01:10:33;;;;;;;2.13;1.20;;;19.00;55.40;;;;;;5022429;28;20057;-65
2023/01/20 01:13:00;;;;;;;1.80;1.05;;;19.00;55.40;;;;;;5022545;28;20025;-66
2023/01/20 01:15:26;;;;;;;2.50;1.20;;;19.00;55.40;;;;;;5023407;28;20437;-66
2023/01/20 01:17:53;;;;;;;1.92;1.27;;;19.00;55.40;;;;;;5022038;28;20095;-66
2023/01/20 01:20:19;;;;;;;1.70;1.10;;;19.00;55.40;;;;;;5022734;28;20478;-66
2023/01/20 01:22:44;;;;;;;1.95;1.25;;;19.00;55.40;;;;;;5020718;28;20226;-65
2023/01/20 01:25:10;;;;;;;2.50;1.20;;;19.00;55.40;;;;;;5022057;28;20026;-65
2023/01/20 01:27:36;;;;;;;1.70;1.17;;;19.00;55.40;;;;;;5021122;28;20108;-66
2023/01/20 01:30:02;;;;;;;1.70;1.20;;;18.90;55.40;;;;;;5023998;28;20083;-66
2023/01/20 01:32:28;;;;;;;1.48;1.02;;;18.90;55.40;;;;;;5022505;28;20037;-65
2023/01/20 01:34:53;;;;;;;1.85;1.10;;;18.90;55.40;;;;;;5019180;28;20048;-66
2023/01/20 01:37:19;;;;;;;1.45;1.00;;;18.90;55.40;;;;;;5018213;28;20459;-66
2023/01/20 01:39:44;;;;;;;2.50;1.13;;;18.90;55.40;;;;;;5020380;28;20493;-66
2023/01/20 01:42:18;;;;;;;1.90;1.20;;;18.90;55.40;;;;;;5021302;28;20123;-66
2023/01/20 01:45:09;;;;;;;1.88;1.17;;;18.90;55.40;;;;;;5022969;28;20041;-66
2023/01/20 01:47:41;;;;;;;1.30;0.90;;;18.90;55.40;;;;;;5017808;28;20025;-65
2023/01/20 01:50:10;;;;;;;1.38;1.00;;;18.90;55.40;;;;;;5020640;28;20453;-65
2023/01/20 01:52:37;;;;;;;;;;;18.90;55.40;;;;;;5025259;28;20022;-66
2023/01/20 01:55:03;;;;;;;1.70;1.05;;;18.90;55.40;;;;;;5037237;28;19943;-65
2023/01/20 01:57:31;;;;;;;2.50;1.20;;;18.90;55.40;;;;;;5020219;28;20396;-65
2023/01/20 01:59:56;;;;;;;1.67;1.13;;;18.90;55.40;;;;;;5028287;28;20356;-66
2023/01/20 02:02:22;;;;;;;2.40;1.35;;;18.90;55.40;;;;;;5022363;28;20050;-66
2023/01/20 02:04:49;;;;;;;1.73;1.10;;;18.80;55.40;;;;;;5018639;28;20029;-66
2023/01/20 02:07:18;;;;;;;1.85;1.20;;;18.80;55.40;;;;;;5017834;28;20022;-65
2023/01/20 02:09:43;;;;;;;1.80;1.20;;;18.80;55.40;;;;;;5037119;28;20122;-66
2023/01/20 02:12:15;;;;;;;2.10;1.20;;;18.80;55.50;;;;;;5019325;28;20096;-66
2023/01/20 02:14:46;;;;;;;2.00;1.20;;;18.80;55.90;;;;;;5018208;28;20099;-66
2023/01/20 02:17:34;;;;;;;2.72;1.25;;;18.80;55.40;;;;;;5020094;28;20175;-66
2023/01/20 02:20:21;;;;;;;1.45;1.00;;;18.80;55.50;;;;;;5022419;28;20102;-66
2023/01/20 02:23:05;;;;;;;1.70;1.00;;;18.80;55.50;;;;;;5021026;28;20030;-65
2023/01/20 02:25:42;;;;;;;1.67;1.10;;;18.80;55.50;;;;;;5022452;28;20504;-65
2023/01/20 02:28:32;;;;;;;1.70;1.10;;;18.80;55.50;;;;;;5020753;28;20492;-67
2023/01/20 02:31:24;;;;;;;;;;;18.80;55.50;;;;;;5020698;28;20765;-65
2023/01/20 02:34:07;;;;;;;1.80;1.05;;;18.80;55.50;;;;;;5020279;28;20349;-66
2023/01/20 02:36:38;;;;;;;2.58;1.10;;;18.80;55.50;;;;;;5019210;28;20361;-65
2023/01/20 02:39:09;;;;;;;1.95;1.23;;;18.80;55.50;;;;;;5021843;28;20033;-66
2023/01/20 02:41:39;;;;;;;1.80;1.13;;;18.80;55.50;;;;;;5020506;28;20038;-66
2023/01/20 02:44:13;;;;;;;1.40;1.08;;;18.70;55.50;;;;;;5022729;28;20090;-66
2023/01/20 02:47:13;;;;;;;1.30;0.90;;;18.70;55.50;;;;;;5020672;28;20388;-66
2023/01/20 02:49:38;;;;;;;;;;;18.70;55.50;;;;;;5026102;28;20017;-66
2023/01/20 02:52:19;;;;;;;2.30;1.10;;;18.70;55.50;;;;;;5026692;28;20346;-66
2023/01/20 02:54:49;;;;;;;1.67;1.00;;;18.70;55.50;;;;;;5018382;28;20476;-66
2023/01/20 02:57:17;;;;;;;;;;;18.70;55.50;;;;;;5018551;28;20512;-66
2023/01/20 02:59:48;;;;;;;2.28;1.20;;;18.70;55.50;;;;;;5019336;28;19905;-66
2023/01/20 03:02:17;;;;;;;1.55;1.10;;;18.70;55.50;;;;;;5020998;28;20481;-66
2023/01/20 03:04:51;;;;;;;1.65;1.10;;;18.70;55.50;;;;;;5019475;28;20029;-66
2023/01/20 03:07:21;;;;;;;2.20;1.27;;;18.70;55.50;;;;;;5019301;28;20437;-66
2023/01/20 03:09:48;;;;;;;;;;;18.70;55.50;;;;;;5021920;28;20029;-66
2023/01/20 03:12:28;;;;;;;2.28;1.20;;;18.70;55.50;;;;;;5031763;28;19998;-66
2023/01/20 03:14:53;;;;;;;1.42;1.15;;;18.70;55.50;;;;;;5019482;28;20030;-66
2023/01/20 03:17:20;;;;;;;1.55;1.10;;;18.70;55.50;;;;;;5019164;28;20044;-66
2023/01/20 03:19:46;;;;;;;1.75;1.20;;;18.70;55.60;;;;;;5019116;28;20045;-66
2023/01/20 03:22:12;;;;;;;1.52;1.10;;;18.70;55.60;;;;;;5021346;28;20064;-66
2023/01/20 03:24:40;;;;;;;1.83;1.20;;;18.60;55.50;;;;;;5017441;28;20113;-66
2023/01/20 03:27:06;;;;;;;1.70;1.10;;;18.60;55.60;;;;;;5019295;28;20554;-66
2023/01/20 03:29:32;;;;;;;1.73;1.17;;;18.60;55.60;;;;;;5020700;28;20061;-66
2023/01/20 03:32:00;;;;;;;2.00;1.30;;;18.60;55.60;;;;;;5026453;28;20050;-66
2023/01/20 03:34:29;;;;;;;1.70;1.10;;;18.60;55.60;;;;;;5019498;28;20068;-67
2023/01/20 03:36:55;;;;;;;;;;;18.60;55.70;;;;;;5017466;28;20040;-66
2023/01/20 03:39:22;;;;;;;1.60;1.00;;;18.60;55.60;;;;;;5020144;28;20276;-66
2023/01/20 03:42:13;;;;;;;1.80;1.10;;;18.60;55.60;;;;;;5021794;28;20034;-66
2023/01/20 03:45:08;;;;;;;2.22;1.10;;;18.60;55.70;;;;;;5018251;28;20034;-67
2023/01/20 03:47:57;;;;;;;2.13;1.20;;;18.60;55.70;;;;;;5015579;28;20511;-66
2023/01/20 03:50:29;;;;;;;1.57;1.00;;;18.60;55.70;;;;;;5019312;28;20025;-66
2023/01/20 03:53:02;;;;;;;1.80;1.20;;;18.60;55.70;;;;;;5014279;28;20022;-66
2023/01/20 03:55:34;;;;;;;1.50;1.02;;;18.60;55.80;;;;;;5018854;28;20385;-66
2023/01/20 03:58:10;;;;;;;1.85;1.25;;;18.60;55.80;;;;;;5017218;28;20100;-67
2023/01/20 04:00:43;;;;;;;2.10;1.38;;;18.60;55.90;;;;;;5021178;28;20018;-65
2023/01/20 04:03:17;;;;;;;1.50;0.90;;;18.60;55.80;;;;;;5020958;28;20408;-66
2023/01/20 04:05:44;;;;;;;1.75;1.10;;;18.60;55.90;;;;;;5020526;28;20469;-66
2023/01/20 04:08:13;;;;;;;1.70;1.08;;;18.50;55.90;;;;;;5021377;28;20026;-66
2023/01/20 04:10:41;;;;;;;1.67;1.10;;;18.50;56.40;;;;;;5024228;28;20445;-66
2023/01/20 04:13:07;;;;;;;1.65;1.00;;;18.50;55.90;;;;;;5023381;28;20256;-66
2023/01/20 04:15:37;;;;;;;1.90;1.20;;;18.50;55.90;;;;;;5024600;28;20025;-66
2023/01/20 04:18:18;;;;;;;1.98;1.20;;;18.50;56.00;;;;;;5019407;28;20041;-66
2023/01/20 04:21:06;;;;;;;2.13;1.23;;;18.50;56.00;;;;;;5026227;28;20053;-66
2023/01/20 04:23:38;;;;;;;2.17;1.10;;;18.50;56.00;;;;;;5021668;28;20049;-66
2023/01/20 04:26:04;;;;;;;1.85;1.20;;;18.50;56.00;;;;;;5038139;28;20524;-67
2023/01/20 04:28:30;;;;;;;1.45;1.05;;;18.50;56.00;;;;;;5027071;28;20029;-66
2023/01/20 04:30:55;;;;;;;1.63;1.05;;;18.50;56.00;;;;;;5019733;28;20096;-66
2023/01/20 04:33:21;;;;;;;1.80;1.05;;;18.50;56.10;;;;;;5023137;28;20398;-65
2023/01/20 04:35:47;;;;;;;1.35;1.00;;;18.50;56.10;;;;;;5018072;28;20029;-66
2023/01/20 04:38:12;;;;;;;1.70;1.10;;;18.50;56.10;;;;;;5021175;28;20029;-66
2023/01/20 04:40:38;;;;;;;2.25;1.23;;;18.50;56.10;;;;;;5017753;28;20037;-66
2023/01/20 04:43:04;;;;;;;2.00;1.20;;;18.50;56.60;;;;;;5020258;28;20504;-66
2023/01/20 04:45:29;;;;;;;1.45;1.00;;;18.50;56.10;;;;;;5036361;28;20025;-66
2023/01/20 04:47:55;;;;;;;1.80;1.10;;;18.50;56.10;;;;;;5022165;28;20034;-65
2023/01/20 04:50:21;;;;;;;1.92;1.20;;;18.50;56.10;;;;;;5020373;28;20025;-66
2023/01/20 04:52:46;;;;;;;1.73;1.10;;;18.50;56.20;;;;;;5021187;28;20037;-66
2023/01/20 04:55:12;;;;;;;1.75;1.20;;;18.50;56.20;;;;;;5021230;28;20034;-66
2023/01/20 04:57:38;;;;;;;1.50;1.00;;;18.50;56.20;;;;;;5021313;28;20539;-67
2023/01/20 05:00:05;;;;;;;1.45;0.95;;;18.40;56.20;;;;;;5026935;28;20358;-66
2023/01/20 05:02:31;;;;;;;1.63;1.10;;;18.50;56.20;;;;;;5023929;28;20029;-66
2023/01/20 05:04:57;;;;;;;1.55;1.00;;;18.50;56.30;;;;;;5023631;28;20079;-66
2023/01/20 05:07:22;;;;;;;1.83;0.90;;;18.40;56.20;;;;;;5023526;28;20021;-66
2023/01/20 05:09:48;;;;;;;1.42;0.90;;;18.50;56.40;;;;;;5024209;28;20025;-66
2023/01/20 05:12:13;;;;;;;1.38;1.00;;;18.50;56.50;;;;;;5021869;28;20375;-66
2023/01/20 05:14:39;;;;;;;1.73;1.00;;;18.50;56.50;;;;;;5021967;28;20052;-66
2023/01/20 05:17:05;;;;;;;2.08;1.10;;;18.50;56.50;;;;;;5020434;28;20493;-66
2023/01/20 05:19:30;;;;;;;1.10;0.80;;;18.50;56.50;;;;;;5023015;28;20049;-66
2023/01/20 05:21:56;;;;;;;1.05;0.90;;;18.50;56.50;;;;;;5021368;28;20041;-66
2023/01/20 05:24:22;;;;;;;1.50;0.98;;;18.50;56.50;;;;;;5020259;28;20030;-66
2023/01/20 05:26:48;;;;;;;1.52;1.00;;;18.50;56.50;;;;;;5022118;28;20054;-66
2023/01/20 05:29:13;;;;;;;1.63;1.00;;;18.50;56.60;;;;;;5019456;28;20441;-66
2023/01/20 05:31:41;;;;;;;1.60;1.00;;;18.50;56.60;;;;;;5018173;28;20045;-66
2023/01/20 05:34:08;;;;;;;1.27;1.00;;;18.50;56.50;;;;;;5023987;28;20033;-66
2023/01/20 05:36:34;;;;;;;2.20;1.20;;;18.50;56.50;;;;;;5020839;28;20389;-66
2023/01/20 05:38:59;;;;;;;2.03;1.20;;;18.50;56.50;;;;;;5023456;28;20027;-66
2023/01/20 05:41:25;;;;;;;1.90;1.10;;;18.50;56.60;;;;;;5023177;28;20125;-66
2023/01/20 05:43:54;;;;;;;1.17;0.80;;;18.50;56.70;;;;;;5020352;28;20026;-66
2023/01/20 05:46:20;;;;;;;1.58;1.10;;;18.50;56.70;;;;;;5022586;28;20480;-68
2023/01/20 05:48:46;;;;;;;1.40;1.00;;;18.50;57.00;;;;;;5019576;28;20038;-66
2023/01/20 05:51:11;;;;;;;2.53;1.00;;;18.60;57.10;;;;;;5023366;28;20108;-66
2023/01/20 05:53:37;;;;;;;1.75;1.10;;;18.50;57.20;;;;;;5022493;28;20057;-66
2023/01/20 05:56:04;;;;;;;1.35;0.90;;;18.60;57.20;;;;;;5019357;28;20542;-66
2023/01/20 05:58:30;;;;;;;1.70;1.00;;;18.60;57.30;;;;;;5014049;28;20033;-66
2023/01/20 06:01:10;;;;;;;1.38;0.90;;;18.60;57.20;;;;;;5016550;28;20525;-66
2023/01/20 06:03:36;;;;;;;1.50;0.90;;;18.60;57.20;;;;;;5019848;28;20511;-66
2023/01/20 06:06:12;;;;;;;2.22;1.00;;;18.60;57.10;;;;;;5021364;28;20060;-66
2023/01/20 06:08:38;;;;;;;1.40;0.90;;;18.60;57.10;;;;;;5022437;28;20504;-66
2023/01/20 06:11:04;;;;;;;2.28;1.20;;;18.60;57.10;;;;;;5024309;28;20067;-66
2023/01/20 06:13:30;;;;;;;1.50;0.93;;;18.60;57.10;;;;;;5022396;28;20041;-66
2023/01/20 06:15:55;;;;;;;2.03;1.20;;;18.60;57.10;;;;;;5021424;28;20112;-66
2023/01/20 06:18:22;;;;;;;1.92;1.00;;;18.50;57.00;;;;;;5019637;28;20044;-66
2023/01/20 06:20:47;;;;;;;2.67;1.13;;;18.60;57.10;;;;;;5022094;28;20091;-71
2023/01/20 06:23:14;;;;;;;1.70;1.10;;;18.60;57.00;;;;;;5020300;28;20382;-66
2023/01/20 06:25:40;;;;;;;1.88;1.10;;;18.60;57.60;;;;;;5023169;28;20053;-66
2023/01/20 06:28:07;;;;;;;2.58;1.30;;;18.60;57.20;;;;;;5021220;28;20045;-66
2023/01/20 06:30:33;;;;;;;2.47;1.30;;;18.60;57.10;;;;;;5018795;28;20022;-66
2023/01/20 06:32:59;;;;;;;2.75;1.30;;;18.60;57.10;;;;;;5036500;28;20046;-66
2023/01/20 06:35:24;;;;;;;2.70;1.30;;;18.60;57.10;;;;;;5018368;28;20031;-66
2023/01/20 06:37:50;;;;;;;2.60;1.23;;;18.60;57.00;;;;;;5023577;28;20388;-67
2023/01/20 06:40:16;;;;;;;3.38;1.30;;;18.60;57.00;;;;;;5017030;28;20587;-66
2023/01/20 06:42:42;;;;;;;3.50;1.40;;;18.60;57.00;;;;;;5020736;28;20037;-66
2023/01/20 06:45:08;;;;;;;2.38;1.33;;;18.60;57.00;;;;;;5020500;28;20353;-66
2023/01/20 06:47:34;;;;;;;2.80;1.40;;;18.60;57.00;;;;;;5021087;28;20445;-66
2023/01/20 06:49:59;;;;;;;3.40;1.30;;;18.60;57.00;;;;;;5021038;28;20029;-66
2023/01/20 06:52:25;;;;;;;3.08;1.52;;;18.60;57.00;;;;;;5023069;28;20128;-66
2023/01/20 06:54:50;;;;;;;3.13;1.70;;;18.60;57.00;;;;;;5020289;28;20029;-66
2023/01/20 06:57:16;;;;;;;3.70;1.60;;;18.60;57.00;;;;;;5019158;28;20034;-66
2023/01/20 06:59:42;;;;;;;3.13;1.60;;;18.60;56.90;;;;;;5022048;28;20026;-67
2023/01/20 07:02:10;;;;;;;4.70;1.42;;;18.60;56.90;;;;;;5017604;28;20112;-66
2023/01/20 07:04:36;;;;;;;5.43;2.00;;;18.60;56.90;;;;;;5019160;28;20036;-66
2023/01/20 07:07:01;;;;;;;4.32;1.75;;;18.50;56.80;;;;;;5016333;28;20018;-66
2023/01/20 07:09:27;;;;;;;4.10;2.03;;;18.60;56.80;;;;;;5034170;28;20022;-66
2023/01/20 07:11:53;;;;;;;3.92;1.60;;;18.60;56.80;;;;;;5019373;28;20038;-66
2023/01/20 07:14:19;;;;;;;3.35;1.63;;;18.60;56.80;;;;;;5019484;28;20375;-66
2023/01/20 07:16:45;;;;;;;5.53;2.60;;;18.60;56.80;;;;;;5018724;28;20044;-66
2023/01/20 07:19:11;;;;;;;3.45;1.65;;;18.60;56.80;;;;;;5017859;28;20032;-66
2023/01/20 07:21:37;;;;;;;3.28;1.52;;;18.60;56.80;;;;;;5020747;28;20088;-67
2023/01/20 07:24:03;;;;;;;4.63;1.92;;;18.60;56.80;;;;;;5021528;28;20030;-66
2023/01/20 07:26:29;;;;;;;3.47;1.58;;;18.60;56.80;;;;;;5022263;28;20037;-66
2023/01/20 07:28:57;;;;;;;3.40;1.70;;;18.60;56.80;;;;;;5020703;28;20089;-66
2023/01/20 07:31:25;;;;;;;3.75;1.75;;;18.60;56.80;;;;;;5018571;28;20029;-66
2023/01/20 07:33:53;;;;;;;4.65;1.70;;;18.60;56.70;;;;;;5017658;28;20349;-66
2023/01/20 07:36:19;;;;;;;5.35;1.95;;;18.60;56.70;;;;;;5015536;28;20030;-66
2023/01/20 07:38:51;;;;;;;4.82;2.05;;;18.60;56.70;;;;;;5015337;28;20071;-66
2023/01/20 07:41:18;;;;;;;4.03;1.92;;;18.60;56.70;;;;;;5017544;28;20418;-66
2023/01/20 07:43:46;;;;;;;3.20;1.65;;;18.60;56.70;;;;;;5019134;28;20040;-66
2023/01/20 07:46:13;;;;;;;3.58;1.80;;;18.60;56.70;;;;;;5018871;28;20473;-66
2023/01/20 07:48:39;;;;;;;4.60;1.65;;;18.60;56.70;;;;;;5018733;28;20397;-66
2023/01/20 07:51:08;;;;;;;3.97;1.88;;;18.50;56.70;;;;;;5019080;28;20022;-66
2023/01/20 07:53:35;;;;;;;4.40;1.80;;;18.60;56.70;;;;;;5019863;28;20064;-66
2023/01/20 07:56:04;;;;;;;3.47;1.75;;;18.60;56.70;;;;;;5018937;28;20973;-66
2023/01/20 07:58:29;;;;;;;3.53;1.65;;;18.60;56.60;;;;;;5018336;28;20029;-66
2023/01/20 08:00:55;;;;;;;4.22;1.80;;;18.60;56.70;;;;;;5020875;28;20052;-66
2023/01/20 08:03:22;;;;;;;4.90;1.85;;;18.60;56.60;;;;;;5021585;28;20036;-67
2023/01/20 08:05:47;;;;;;;3.80;1.85;;;18.60;57.10;;;;;;5016737;28;20547;-66
2023/01/20 08:08:13;;;;;;;4.72;1.80;;;18.60;56.60;;;;;;5018260;28;20022;-66
2023/01/20 08:10:38;;;;;;;4.07;1.70;;;18.60;56.60;;;;;;5021627;28;20037;-66
2023/01/20 08:13:04;;;;;;;4.07;1.73;;;18.60;56.60;;;;;;5021181;28;20061;-67
2023/01/20 08:15:30;;;;;;;3.22;1.75;;;18.60;56.50;;;;;;5018540;28;20022;-66
2023/01/20 08:17:58;;;;;;;4.15;2.03;;;18.50;56.50;;;;;;5021441;28;20363;-66
2023/01/20 08:20:24;;;;;;;3.35;1.70;;;18.60;56.50;;;;;;5018849;28;20049;-66
2023/01/20 08:22:49;;;;;;;4.15;2.03;;;18.60;56.50;;;;;;5019617;28;20485;-66
2023/01/20 08:25:15;;;;;;;4.53;1.70;;;18.60;56.50;;;;;;5025781;28;20030;-66
2023/01/20 08:27:40;;;;;;;3.63;1.67;;;18.50;56.50;;;;;;5017364;28;20029;-66
2023/01/20 08:30:07;;;;;;;3.80;1.70;;;18.50;56.50;;;;;;5016921;28;20022;-67
2023/01/20 08:32:33;;;;;;;3.35;1.75;;;18.60;56.50;;;;;;5020078;28;20103;-66
2023/01/20 08:34:58;;;;;;;3.40;1.70;;;18.50;56.50;;;;;;5017642;28;20034;-66
2023/01/20 08:37:24;;;;;;;3.08;1.73;;;18.50;56.40;;;;;;5018564;28;20361;-67
2023/01/20 08:39:50;;;;;;;3.97;1.63;;;18.50;56.60;;;;;;5017967;28;20393;-67
2023/01/20 08:42:16;;;;;;;3.80;1.65;;;18.60;57.20;;;;;;5016837;28;20041;-67
2023/01/20 08:44:41;;;;;;;4.38;1.70;;;18.60;57.50;;;;;;5020290;28;20030;-67
2023/01/20 08:47:07;;;;;;;3.30;1.80;;;18.60;57.70;;;;;;5024127;28;20026;-67
2023/01/20 08:49:33;;;;;;;2.50;1.48;;;18.60;57.90;;;;;;5026595;28;20037;-69
2023/01/20 08:51:58;;;;;;;3.28;1.60;;;18.60;58.10;;;;;;5033828;28;20100;-68
2023/01/20 08:54:24;;;;;;;4.03;1.80;;;18.60;58.10;;;;;;5029403;28;20128;-67
2023/01/20 08:56:51;;;;;;;2.97;1.48;;;18.70;58.00;;;;;;5024184;28;20509;-69
2023/01/20 08:59:18;;;;;;;2.88;1.48;;;18.70;58.10;;;;;;5022515;28;20033;-68
2023/01/20 09:01:43;;;;;;;4.38;1.55;;;18.70;57.90;;;;;;5024611;28;20092;-69
2023/01/20 09:04:09;;;;;;;2.88;1.58;;;18.70;57.80;;;;;;5024514;28;20388;-67
2023/01/20 09:06:48;;;;;;;3.03;1.60;;;18.70;57.40;;;;;;5024667;28;20030;-67
2023/01/20 09:09:15;;;;;;;3.00;1.63;;;18.80;57.20;;;;;;5023163;28;20032;-68
2023/01/20 09:11:43;;;;;;;3.45;1.95;;;18.90;57.00;;;;;;5023129;28;20461;-68
2023/01/20 09:14:09;;;;;;;4.53;1.98;;;18.90;57.00;;;;;;5023140;28;20122;-66
2023/01/20 09:16:34;;;;;;;4.95;2.22;;;18.90;56.70;;;;;;5027453;28;20400;-68
2023/01/20 09:19:01;;;;;;;5.50;2.60;;;19.10;56.50;;;;;;5024663;28;20026;-70
2023/01/20 09:21:27;;;;;;;3.90;2.15;;;19.20;56.30;;;;;;5025085;28;20031;-69
2023/01/20 09:23:53;;;;;;;5.60;2.30;;;19.20;56.00;;;;;;5025196;28;20034;-67
2023/01/20 09:26:18;;;;;;;4.88;2.40;;;19.30;55.90;;;;;;5022919;28;20022;-70
2023/01/20 09:28:47;;;;;;;3.85;2.10;;;19.40;55.80;;;;;;5023150;28;20079;-69
2023/01/20 09:31:12;;;;;;;4.18;2.28;;;19.50;55.60;;;;;;5024662;28;20065;-69
2023/01/20 09:33:39;;;;;;;4.65;2.40;;;19.60;55.50;;;;;;5025679;28;20604;-68
2023/01/20 09:36:07;;;;;;;5.90;2.35;;;19.70;55.30;;;;;;5032034;28;20116;-70
2023/01/20 09:44:49;;;;;;;4.38;2.40;;;20.10;54.50;;;;;;5023601;28;20132;-70
2023/01/20 09:47:35;;;;;;;5.82;2.33;;;20.20;54.20;;;;;;5021599;28;20034;-70
2023/01/20 09:53:29;;;;;;;4.38;2.15;;;20.50;53.50;;;;;;5019259;28;20040;-68
2023/01/20 09:56:12;;;;;;;4.38;2.22;;;20.60;53.30;;;;;;5016933;28;20085;-67
2023/01/20 09:58:54;;;;;;;4.82;2.25;;;20.70;53.00;;;;;;5023136;28;20034;-68
2023/01/20 10:01:38;;;;;;;5.05;2.22;;;20.80;52.80;;;;;;5021163;28;20037;-68
2023/01/20 10:04:19;;;;;;;4.13;2.00;;;20.90;52.80;;;;;;5019721;28;20029;-66
2023/01/20 10:06:54;;;;;;;4.50;2.33;;;21.00;52.70;;;;;;5019617;28;20029;-68
2023/01/20 10:09:41;;;;;;;4.65;2.08;;;21.00;52.50;;;;;;5023332;28;20094;-68
2023/01/20 10:12:25;;;;;;;4.00;2.30;;;21.10;51.90;;;;;;5021509;28;20107;-67
2023/01/20 10:15:16;;;;;;;4.28;2.38;;;21.20;51.90;;;;;;5023403;28;20430;-66
2023/01/20 10:17:58;;;;;;;4.15;2.20;;;21.20;51.70;;;;;;5020864;28;20030;-66
2023/01/20 10:20:44;;;;;;;4.32;2.13;;;21.30;51.50;;;;;;5022167;28;20080;-67
2023/01/20 10:23:13;;;;;;;4.82;2.10;;;21.40;51.40;;;;;;5021498;28;20214;-65
2023/01/20 10:25:52;;;;;;;3.65;2.00;;;21.40;51.30;;;;;;5023732;28;20108;-66
2023/01/20 10:28:25;;;;;;;3.58;2.10;;;21.50;51.10;;;;;;5023756;28;20087;-66
2023/01/20 10:30:51;;;;;;;4.18;2.50;;;21.50;51.00;;;;;;5022478;28;20116;-66
2023/01/20 10:33:39;;;;;;;3.72;2.03;;;21.50;50.90;;;;;;5021686;28;20101;-66
2023/01/20 10:36:22;;;;;;;5.03;2.30;;;21.40;50.80;;;;;;5020490;28;20116;-66
2023/01/20 10:39:20;;;;;;;3.70;2.10;;;21.40;50.80;;;;;;5018239;28;20013;-66
2023/01/20 10:41:51;;;;;;;3.88;2.10;;;21.40;50.80;;;;;;5022828;28;20030;-66
2023/01/20 10:44:17;;;;;;;5.38;2.30;;;21.40;50.80;;;;;;5020047;28;20064;-66
2023/01/20 10:46:48;;;;;;;5.13;2.30;;;21.30;50.80;;;;;;5021541;28;20469;-66
2023/01/20 10:49:33;;;;;;;4.18;2.05;;;21.30;50.80;;;;;;5020369;28;20026;-66
2023/01/20 10:52:14;;;;;;;3.88;1.90;;;21.30;50.90;;;;;;5035232;28;20045;-65
2023/01/20 10:54:39;;;;;;;4.25;2.22;;;21.20;50.80;;;;;;5020005;28;20453;-66
2023/01/20 10:57:11;;;;;;;3.70;2.10;;;21.20;50.90;;;;;;5020240;28;20040;-67
2023/01/20 10:59:42;;;;;;;3.85;2.20;;;21.20;50.90;;;;;;5020377;28;20022;-66
2023/01/20 11:02:24;;;;;;;3.72;2.00;;;21.10;51.00;;;;;;5020347;28;20025;-66
2023/01/20 11:05:02;;;;;;;4.15;2.00;;;21.10;51.00;;;;;;5017803;28;20029;-67
2023/01/20 11:07:31;;;;;;;3.28;1.90;;;21.10;51.00;;;;;;5020999;28;20036;-66
2023/01/20 11:10:04;;;;;;;4.82;1.98;;;21.00;51.00;;;;;;5022422;28;20489;-66
2023/01/20 11:12:35;;;;;;;3.33;2.05;;;21.00;51.00;;;;;;5017505;28;20377;-66
2023/01/20 11:15:01;;;;;;;3.90;1.98;;;21.00;51.10;;;;;;5020406;28;20109;-66
2023/01/20 11:17:27;;;;;;;3.80;2.10;;;21.00;51.10;;;;;;5020483;28;20041;-66
2023/01/20 11:19:55;;;;;;;3.90;2.00;;;20.90;51.10;;;;;;5021339;28;20040;-66
2023/01/20 11:22:45;;;;;;;3.85;2.03;;;20.90;51.20;;;;;;5021987;28;20200;-66
2023/01/20 11:25:23;;;;;;;3.65;2.00;;;20.90;51.20;;;;;;5016896;28;20441;-66
2023/01/20 11:27:50;;;;;;;3.75;2.00;;;20.90;51.30;;;;;;5017373;28;20498;-65
2023/01/20 11:30:26;;;;;;;3.55;2.00;;;20.80;51.30;;;;;;5019338;28;20032;-65
2023/01/20 11:33:16;;;;;;;3.55;1.90;;;20.80;51.30;;;;;;5016722;28;20022;-67
2023/01/20 11:35:57;;;;;;;3.83;1.75;;;20.80;51.40;;;;;;5020860;28;20080;-66
2023/01/20 11:38:25;;;;;;;3.22;1.83;;;20.80;51.50;;;;;;5017950;28;20014;-66
2023/01/20 11:40:56;;;;;;;3.92;2.00;;;20.70;51.40;;;;;;5021096;28;20037;-66
2023/01/20 11:43:36;;;;;;;3.35;1.90;;;20.70;51.50;;;;;;5019472;28;20466;-65
2023/01/20 11:46:18;;;;;;;3.40;2.10;;;20.70;51.60;;;;;;5020170;28;20025;-66
2023/01/20 11:48:44;;;;;;;3.35;1.77;;;20.70;51.60;;;;;;5015746;28;20500;-66
2023/01/20 11:51:27;;;;;;;3.92;1.85;;;20.60;51.60;;;;;;5017906;28;20453;-66
2023/01/20 11:54:14;;;;;;;3.83;2.05;;;20.60;51.60;;;;;;5024611;28;20110;-66
2023/01/20 11:56:43;;;;;;;3.20;1.95;;;20.60;51.60;;;;;;5022714;28;20076;-66
2023/01/20 11:59:28;;;;;;;3.17;1.90;;;20.50;51.60;;;;;;5018223;28;20042;-65
2023/01/20 12:01:57;;;;;;;3.40;2.08;;;20.50;51.60;;;;;;5021397;28;20418;-65
2023/01/20 12:04:26;;;;;;;3.35;2.15;;;20.50;51.70;;;;;;5021001;28;20049;-66
2023/01/20 12:07:04;;;;;;;3.50;1.95;;;20.50;51.70;;;;;;5023053;28;20041;-66
2023/01/20 12:09:40;;;;;;;3.20;1.90;;;20.40;51.70;;;;;;5021142;28;20030;-66
2023/01/20 12:12:08;;;;;;;3.42;2.00;;;20.40;51.80;;;;;;5014792;28;20264;-65
2023/01/20 12:15:00;;;;;;;3.05;1.70;;;20.40;51.80;;;;;;5014200;28;20017;-66
2023/01/20 12:17:35;;;;;;;3.28;1.85;;;20.40;51.80;;;;;;5006576;28;20265;-65
2023/01/20 12:20:28;;;;;;;3.03;1.70;;;20.30;51.90;;;;;;5016613;28;20555;-65
2023/01/20 12:23:22;;;;;;;3.63;2.28;;;20.30;51.90;;;;;;5018268;28;20069;-65
2023/01/20 12:25:56;;;;;;;3.30;1.90;;;20.30;52.00;;;;;;5015064;28;20567;-65
2023/01/20 12:28:39;;;;;;;4.15;1.80;;;20.30;52.00;;;;;;5019086;28;20473;-65
2023/01/20 12:31:08;;;;;;;2.90;1.70;;;20.30;52.10;;;;;;5022743;28;20022;-65
2023/01/20 12:33:44;;;;;;;3.50;1.80;;;20.20;52.10;;;;;;5025265;28;20048;-66
2023/01/20 12:36:41;;;;;;;3.25;1.95;;;20.20;52.20;;;;;;5022694;28;20485;-66
2023/01/20 12:39:56;;;;;;;3.50;2.10;;;20.20;52.20;;;;;;5021948;28;20561;-65
2023/01/20 12:42:46;;;;;;;2.72;1.63;;;20.20;52.20;;;;;;5022749;28;20057;-65
2023/01/20 12:45:40;;;;;;;4.38;1.83;;;20.20;52.30;;;;;;5024622;28;20042;-66
2023/01/20 12:48:19;;;;;;;4.05;2.20;;;20.20;52.60;;;;;;5022948;28;20075;-66
2023/01/20 12:50:54;;;;;;;5.55;2.38;;;20.20;52.60;;;;;;5024196;28;20108;-66
2023/01/20 12:53:45;;;;;;;5.78;2.78;;;20.30;52.60;;;;;;5023288;28;20099;-66
2023/01/20 12:56:38;;;;;;;6.13;3.10;;;20.40;52.60;;;;;;5020060;28;20370;-67
2023/01/20 12:59:17;;;;;;;6.47;3.05;;;20.40;52.50;;;;;;5022650;28;20033;-66
2023/01/20 13:02:20;;;;;;;6.65;3.30;;;20.50;52.40;;;;;;5026444;28;20040;-67
2023/01/20 13:05:23;;;;;;;10.30;3.80;;;20.60;52.30;;;;;;5025664;28;20065;-67
2023/01/20 13:08:04;;;;;;;9.00;3.88;;;20.70;52.10;;;;;;5035533;28;20104;-67
2023/01/20 13:10:57;;;;;;;9.35;3.60;;;20.80;52.00;;;;;;5023995;28;20475;-66
2023/01/20 13:13:51;;;;;;;9.00;4.53;;;20.90;51.90;;;;;;5024485;28;20021;-64
2023/01/20 13:16:17;;;;;;;7.53;4.00;;;21.00;51.60;;;;;;5023359;28;20021;-68
2023/01/20 13:19:04;;;;;;;8.95;4.15;;;21.10;51.60;;;;;;5023949;28;20153;-66